NCAR-RAP Real-Time Weather Data

Output produced by METARs form (23 January 2018  15:35 UTC)
found at http://weather.rap.ucar.edu/surface/
 
RJSR 231000Z 29012G22KT 9999 -SHSN FEW010 SCT020 BKN040 M01/M08 Q1003
RJSR 230900Z 28011KT 9999 -SHSN FEW010 SCT020 BKN040 M01/M05 Q1002
RJSR 230800Z 28013KT 9999 FEW015 SCT020 BKN040 M00/M06 Q1001
RJSR 230700Z 28014G28KT 250V310 9999 -SHSN FEW005 SCT015 BKN020 00/M02 Q0999
RJSR 230634Z 27020G32KT 6000 R11/1100VP2000U -SHSN FEW005 SCT015 BKN040 00/00 Q0999 RMK 1ST005 3CU015 7CU040 A2950 P/RR
RJSR 230622Z 27017KT 2000 -SHSN FEW005 SCT010 BKN015 01/01 Q0998 RMK 1ST005 3ST010 7CU015 A2949 P/RR
RJSR 230600Z 27018KT 9999 -SHSN FEW005 SCT015 BKN020 01/01 Q0997
RJSR 230500Z 20009KT 150V230 9999 FEW005 SCT010 BKN030 01/01 Q0994
RJSR 230400Z 18012G22KT 150V230 1500 R11/2000N -SHSN FEW001 BKN005 BKN010 01/01 Q0994
RJSR 230300Z 17011KT 0900 R11/0700VP2000D SHSN FEW001 BKN005 BKN010 01/01 Q0994
RJSR 230242Z 17009KT 130V200 4000 -SHSN FEW005 SCT010 BKN015 02/M00 Q0994 RMK 1ST005 3ST010 6CU015 A2936
RJSR 230200Z VRB02KT 9999 -SHSN FEW010 SCT030 BKN040 M01/M04 Q0995
RJSR 230100Z 03003KT 350V110 9999 -SHSN FEW010 SCT030 BKN040 M01/M04 Q0997
RJSR 230000Z VRB03KT 8000 -SHSN FEW005 SCT020 BKN030 M03/M04 Q0999
RJSR 222300Z VRB01KT 9999 FEW005 BKN050 BKN080 M03/M05 Q1001
RJSR 221000Z 04003KT 9999 FEW030 SCT060 BKN080 M03/M11 Q1015
RJSR 220900Z 03003KT 9999 FEW030 BKN060 BKN090 M03/M12 Q1015
RJSR 220800Z 03003KT 9999 FEW030 BKN070 M03/M12 Q1016
RJSR 220700Z 03003KT 350V070 9999 FEW030 SCT060 BKN/// M03/M12 Q1016
RJSR 220600Z 04004KT 360V080 9999 FEW030 SCT060 BKN/// M03/M12 Q1017
RJSR 220500Z 05004KT 020V080 9999 FEW030 BKN/// M03/M12 Q1018
RJSR 220400Z 01004KT 330V040 9999 FEW030 SCT080 BKN/// M03/M11 Q1019
RJSR 220300Z 01005KT 9999 FEW030 BKN/// M04/M10 Q1020
RJSR 220200Z 36003KT 330V090 9999 FEW030 BKN/// M06/M10 Q1022
RJSR 220100Z 07003KT 9999 FEW030 BKN/// M07/M10 Q1023
RJSR 220000Z 31003KT 9999 FEW020 BKN/// M09/M10 Q1023
RJSR 212300Z 10003KT 9999 FEW020 BKN/// M10/M10 Q1023
RJSR 211000Z 24006KT 210V270 3000 -SHSN FEW003 SCT005 BKN010 M04/M04 Q1019
RJSR 210900Z 24008KT 5000 -SHSN FEW005 SCT010 BKN015 M04/M05 Q1019
RJSR 210800Z 28008KT 9999 -SHSN FEW010 SCT030 BKN040 M03/M09 Q1018
RJSR 210700Z 27010KT 8000 -SHSN FEW005 SCT015 BKN030 M03/M05 Q1018
RJSR 210600Z 28014KT 3500 R11/1300VP2000D -SHSN FEW005 SCT010 BKN020 M02/M05 Q1016
RJSR 210500Z 28010KT 250V310 9999 -SHSN FEW010 SCT030 BKN040 M01/M07 Q1015
RJSR 210400Z 28010KT 9999 FEW020 SCT030 BKN040 M01/M07 Q1015